sensor_id;sensor_type;location;lat;lon;timestamp;P1;durP1;ratioP1;P2;durP2;ratioP2
32786;SDS011;19139;49.372;8.580;2023-07-13T00:00:47;3.83;;;1.50;;
32786;SDS011;19139;49.372;8.580;2023-07-13T00:03:14;2.33;;;1.20;;
32786;SDS011;19139;49.372;8.580;2023-07-13T00:05:41;2.57;;;1.67;;
32786;SDS011;19139;49.372;8.580;2023-07-13T00:08:08;1.70;;;1.03;;
32786;SDS011;19139;49.372;8.580;2023-07-13T00:10:38;2.17;;;1.50;;
32786;SDS011;19139;49.372;8.580;2023-07-13T00:13:06;2.93;;;1.40;;
32786;SDS011;19139;49.372;8.580;2023-07-13T00:15:33;8.20;;;2.17;;
32786;SDS011;19139;49.372;8.580;2023-07-13T00:18:01;3.43;;;1.97;;
32786;SDS011;19139;49.372;8.580;2023-07-13T00:20:28;2.13;;;1.17;;
32786;SDS011;19139;49.372;8.580;2023-07-13T00:22:55;2.80;;;1.47;;
32786;SDS011;19139;49.372;8.580;2023-07-13T00:25:22;2.93;;;1.47;;
32786;SDS011;19139;49.372;8.580;2023-07-13T00:27:54;4.20;;;1.27;;
32786;SDS011;19139;49.372;8.580;2023-07-13T00:30:22;2.63;;;1.50;;
32786;SDS011;19139;49.372;8.580;2023-07-13T00:32:48;2.70;;;1.50;;
32786;SDS011;19139;49.372;8.580;2023-07-13T00:35:26;3.60;;;1.73;;
32786;SDS011;19139;49.372;8.580;2023-07-13T00:37:56;2.37;;;1.50;;
32786;SDS011;19139;49.372;8.580;2023-07-13T00:40:22;1.77;;;1.33;;
32786;SDS011;19139;49.372;8.580;2023-07-13T00:42:51;2.50;;;1.37;;
32786;SDS011;19139;49.372;8.580;2023-07-13T00:47:45;2.50;;;1.43;;
32786;SDS011;19139;49.372;8.580;2023-07-13T00:50:12;1.87;;;1.17;;
32786;SDS011;19139;49.372;8.580;2023-07-13T00:52:43;3.70;;;1.53;;
32786;SDS011;19139;49.372;8.580;2023-07-13T00:55:12;2.10;;;1.50;;
32786;SDS011;19139;49.372;8.580;2023-07-13T00:57:40;3.63;;;1.73;;
32786;SDS011;19139;49.372;8.580;2023-07-13T01:00:08;3.33;;;1.57;;
32786;SDS011;19139;49.372;8.580;2023-07-13T01:02:36;1.87;;;1.27;;
32786;SDS011;19139;49.372;8.580;2023-07-13T01:05:12;3.37;;;1.50;;
32786;SDS011;19139;49.372;8.580;2023-07-13T01:07:40;2.60;;;1.70;;
32786;SDS011;19139;49.372;8.580;2023-07-13T01:10:10;2.27;;;1.50;;
32786;SDS011;19139;49.372;8.580;2023-07-13T01:12:40;1.93;;;1.40;;
32786;SDS011;19139;49.372;8.580;2023-07-13T01:18:00;4.43;;;1.67;;
32786;SDS011;19139;49.372;8.580;2023-07-13T01:20:27;4.30;;;1.43;;
32786;SDS011;19139;49.372;8.580;2023-07-13T01:22:54;4.20;;;1.90;;
32786;SDS011;19139;49.372;8.580;2023-07-13T01:25:21;2.33;;;1.87;;
32786;SDS011;19139;49.372;8.580;2023-07-13T01:27:47;4.10;;;1.60;;
32786;SDS011;19139;49.372;8.580;2023-07-13T01:30:14;3.63;;;1.40;;
32786;SDS011;19139;49.372;8.580;2023-07-13T01:32:41;3.00;;;1.60;;
32786;SDS011;19139;49.372;8.580;2023-07-13T01:35:07;2.73;;;1.67;;
32786;SDS011;19139;49.372;8.580;2023-07-13T01:37:34;2.43;;;1.80;;
32786;SDS011;19139;49.372;8.580;2023-07-13T01:40:03;2.43;;;1.53;;
32786;SDS011;19139;49.372;8.580;2023-07-13T01:42:30;3.23;;;1.90;;
32786;SDS011;19139;49.372;8.580;2023-07-13T01:44:57;3.53;;;1.70;;
32786;SDS011;19139;49.372;8.580;2023-07-13T01:47:24;1.97;;;1.30;;
32786;SDS011;19139;49.372;8.580;2023-07-13T01:49:52;2.30;;;1.50;;
32786;SDS011;19139;49.372;8.580;2023-07-13T01:52:19;4.63;;;1.73;;
32786;SDS011;19139;49.372;8.580;2023-07-13T01:54:45;2.97;;;1.80;;
32786;SDS011;19139;49.372;8.580;2023-07-13T01:57:12;4.97;;;1.90;;
32786;SDS011;19139;49.372;8.580;2023-07-13T01:59:39;2.17;;;1.97;;
32786;SDS011;19139;49.372;8.580;2023-07-13T02:02:05;3.43;;;1.70;;
32786;SDS011;19139;49.372;8.580;2023-07-13T02:04:33;2.37;;;1.70;;
32786;SDS011;19139;49.372;8.580;2023-07-13T02:07:01;2.83;;;1.37;;
32786;SDS011;19139;49.372;8.580;2023-07-13T02:09:28;2.93;;;1.70;;
32786;SDS011;19139;49.372;8.580;2023-07-13T02:11:54;3.00;;;1.50;;
32786;SDS011;19139;49.372;8.580;2023-07-13T02:14:21;2.87;;;1.50;;
32786;SDS011;19139;49.372;8.580;2023-07-13T02:16:48;2.27;;;1.83;;
32786;SDS011;19139;49.372;8.580;2023-07-13T02:19:14;2.17;;;1.73;;
32786;SDS011;19139;49.372;8.580;2023-07-13T02:21:41;2.40;;;1.87;;
32786;SDS011;19139;49.372;8.580;2023-07-13T02:24:08;2.90;;;2.03;;
32786;SDS011;19139;49.372;8.580;2023-07-13T02:26:35;2.90;;;1.90;;
32786;SDS011;19139;49.372;8.580;2023-07-13T02:29:02;3.27;;;1.90;;
32786;SDS011;19139;49.372;8.580;2023-07-13T02:31:28;4.03;;;2.13;;
32786;SDS011;19139;49.372;8.580;2023-07-13T02:33:55;2.17;;;1.87;;
32786;SDS011;19139;49.372;8.580;2023-07-13T02:36:22;3.17;;;2.07;;
32786;SDS011;19139;49.372;8.580;2023-07-13T02:38:49;3.13;;;1.73;;
32786;SDS011;19139;49.372;8.580;2023-07-13T02:41:16;3.87;;;2.00;;
32786;SDS011;19139;49.372;8.580;2023-07-13T02:43:42;4.23;;;1.87;;
32786;SDS011;19139;49.372;8.580;2023-07-13T02:46:09;4.10;;;2.10;;
32786;SDS011;19139;49.372;8.580;2023-07-13T02:48:37;3.83;;;2.00;;
32786;SDS011;19139;49.372;8.580;2023-07-13T02:51:05;2.87;;;1.80;;
32786;SDS011;19139;49.372;8.580;2023-07-13T02:53:32;2.53;;;2.33;;
32786;SDS011;19139;49.372;8.580;2023-07-13T02:55:58;6.87;;;2.30;;
32786;SDS011;19139;49.372;8.580;2023-07-13T02:58:25;4.60;;;2.07;;
32786;SDS011;19139;49.372;8.580;2023-07-13T03:00:52;3.80;;;1.70;;
32786;SDS011;19139;49.372;8.580;2023-07-13T03:03:19;3.30;;;2.30;;
32786;SDS011;19139;49.372;8.580;2023-07-13T03:05:46;2.83;;;2.00;;
32786;SDS011;19139;49.372;8.580;2023-07-13T03:08:17;3.10;;;1.63;;
32786;SDS011;19139;49.372;8.580;2023-07-13T03:10:44;3.17;;;1.67;;
32786;SDS011;19139;49.372;8.580;2023-07-13T03:13:11;3.70;;;1.87;;
32786;SDS011;19139;49.372;8.580;2023-07-13T03:15:37;4.10;;;2.23;;
32786;SDS011;19139;49.372;8.580;2023-07-13T03:18:04;1.83;;;1.47;;
32786;SDS011;19139;49.372;8.580;2023-07-13T03:20:34;2.10;;;1.70;;
32786;SDS011;19139;49.372;8.580;2023-07-13T03:23:00;3.03;;;1.87;;
32786;SDS011;19139;49.372;8.580;2023-07-13T03:25:27;3.33;;;1.97;;
32786;SDS011;19139;49.372;8.580;2023-07-13T03:27:54;2.83;;;1.87;;
32786;SDS011;19139;49.372;8.580;2023-07-13T03:30:20;4.30;;;2.33;;
32786;SDS011;19139;49.372;8.580;2023-07-13T03:32:47;4.07;;;2.00;;
32786;SDS011;19139;49.372;8.580;2023-07-13T03:35:14;2.63;;;2.00;;
32786;SDS011;19139;49.372;8.580;2023-07-13T03:37:41;3.23;;;2.40;;
32786;SDS011;19139;49.372;8.580;2023-07-13T03:40:09;3.40;;;2.00;;
32786;SDS011;19139;49.372;8.580;2023-07-13T03:42:36;3.03;;;2.53;;
32786;SDS011;19139;49.372;8.580;2023-07-13T03:45:03;6.17;;;2.53;;
32786;SDS011;19139;49.372;8.580;2023-07-13T03:47:30;5.30;;;2.60;;
32786;SDS011;19139;49.372;8.580;2023-07-13T03:49:57;2.70;;;2.10;;
32786;SDS011;19139;49.372;8.580;2023-07-13T03:52:23;4.13;;;2.47;;
32786;SDS011;19139;49.372;8.580;2023-07-13T03:54:50;2.43;;;1.80;;
32786;SDS011;19139;49.372;8.580;2023-07-13T03:57:18;2.67;;;2.40;;
32786;SDS011;19139;49.372;8.580;2023-07-13T03:59:44;2.93;;;2.20;;
32786;SDS011;19139;49.372;8.580;2023-07-13T04:02:11;2.67;;;1.90;;
32786;SDS011;19139;49.372;8.580;2023-07-13T04:04:38;3.23;;;2.47;;
32786;SDS011;19139;49.372;8.580;2023-07-13T04:07:07;3.93;;;2.77;;
32786;SDS011;19139;49.372;8.580;2023-07-13T04:09:34;3.67;;;2.10;;
32786;SDS011;19139;49.372;8.580;2023-07-13T04:12:01;4.83;;;2.20;;
32786;SDS011;19139;49.372;8.580;2023-07-13T04:14:28;3.43;;;2.20;;
32786;SDS011;19139;49.372;8.580;2023-07-13T04:16:55;3.17;;;1.93;;
32786;SDS011;19139;49.372;8.580;2023-07-13T04:19:22;3.27;;;1.93;;
32786;SDS011;19139;49.372;8.580;2023-07-13T04:21:49;3.87;;;2.43;;
32786;SDS011;19139;49.372;8.580;2023-07-13T04:24:16;3.87;;;2.20;;
32786;SDS011;19139;49.372;8.580;2023-07-13T04:26:43;3.27;;;2.27;;
32786;SDS011;19139;49.372;8.580;2023-07-13T04:29:10;6.07;;;3.07;;
32786;SDS011;19139;49.372;8.580;2023-07-13T04:31:36;4.97;;;2.60;;
32786;SDS011;19139;49.372;8.580;2023-07-13T04:34:03;4.73;;;2.67;;
32786;SDS011;19139;49.372;8.580;2023-07-13T04:36:30;5.40;;;2.53;;
32786;SDS011;19139;49.372;8.580;2023-07-13T04:38:56;3.27;;;1.97;;
32786;SDS011;19139;49.372;8.580;2023-07-13T04:41:23;5.33;;;2.63;;
32786;SDS011;19139;49.372;8.580;2023-07-13T04:43:50;3.43;;;2.73;;
32786;SDS011;19139;49.372;8.580;2023-07-13T04:46:17;4.17;;;2.93;;
32786;SDS011;19139;49.372;8.580;2023-07-13T04:48:45;5.40;;;2.93;;
32786;SDS011;19139;49.372;8.580;2023-07-13T04:51:12;5.63;;;2.77;;
32786;SDS011;19139;49.372;8.580;2023-07-13T04:53:39;4.40;;;2.50;;
32786;SDS011;19139;49.372;8.580;2023-07-13T04:56:06;3.50;;;2.60;;
32786;SDS011;19139;49.372;8.580;2023-07-13T04:58:33;7.10;;;3.13;;
32786;SDS011;19139;49.372;8.580;2023-07-13T05:01:00;4.20;;;3.00;;
32786;SDS011;19139;49.372;8.580;2023-07-13T05:03:31;4.10;;;2.83;;
32786;SDS011;19139;49.372;8.580;2023-07-13T05:06:01;7.73;;;3.33;;
32786;SDS011;19139;49.372;8.580;2023-07-13T05:08:30;3.57;;;2.50;;
32786;SDS011;19139;49.372;8.580;2023-07-13T05:10:59;5.63;;;2.70;;
32786;SDS011;19139;49.372;8.580;2023-07-13T05:13:27;3.77;;;2.70;;
32786;SDS011;19139;49.372;8.580;2023-07-13T05:16:02;4.37;;;3.27;;
32786;SDS011;19139;49.372;8.580;2023-07-13T05:18:32;3.33;;;2.40;;
32786;SDS011;19139;49.372;8.580;2023-07-13T05:21:00;3.87;;;2.60;;
32786;SDS011;19139;49.372;8.580;2023-07-13T05:23:29;5.10;;;2.83;;
32786;SDS011;19139;49.372;8.580;2023-07-13T05:25:57;5.37;;;3.03;;
32786;SDS011;19139;49.372;8.580;2023-07-13T05:28:24;2.63;;;2.43;;
32786;SDS011;19139;49.372;8.580;2023-07-13T05:30:51;3.83;;;2.73;;
32786;SDS011;19139;49.372;8.580;2023-07-13T05:33:18;3.70;;;2.83;;
32786;SDS011;19139;49.372;8.580;2023-07-13T05:35:44;6.43;;;2.60;;
32786;SDS011;19139;49.372;8.580;2023-07-13T05:38:11;3.20;;;2.50;;
32786;SDS011;19139;49.372;8.580;2023-07-13T05:40:38;4.33;;;2.60;;
32786;SDS011;19139;49.372;8.580;2023-07-13T05:43:05;4.57;;;2.87;;
32786;SDS011;19139;49.372;8.580;2023-07-13T05:45:31;2.67;;;2.40;;
32786;SDS011;19139;49.372;8.580;2023-07-13T05:47:58;3.20;;;2.40;;
32786;SDS011;19139;49.372;8.580;2023-07-13T05:50:25;3.83;;;2.77;;
32786;SDS011;19139;49.372;8.580;2023-07-13T05:52:53;2.53;;;2.27;;
32786;SDS011;19139;49.372;8.580;2023-07-13T05:55:20;3.57;;;2.10;;
32786;SDS011;19139;49.372;8.580;2023-07-13T05:57:47;6.17;;;2.23;;
32786;SDS011;19139;49.372;8.580;2023-07-13T06:00:14;2.77;;;2.50;;
32786;SDS011;19139;49.372;8.580;2023-07-13T06:02:41;4.20;;;2.27;;
32786;SDS011;19139;49.372;8.580;2023-07-13T06:05:08;4.43;;;2.43;;
32786;SDS011;19139;49.372;8.580;2023-07-13T06:07:35;3.53;;;2.33;;
32786;SDS011;19139;49.372;8.580;2023-07-13T06:10:02;4.73;;;2.93;;
32786;SDS011;19139;49.372;8.580;2023-07-13T06:12:28;6.07;;;3.10;;
32786;SDS011;19139;49.372;8.580;2023-07-13T06:14:55;4.90;;;2.50;;
32786;SDS011;19139;49.372;8.580;2023-07-13T06:17:22;3.70;;;2.30;;
32786;SDS011;19139;49.372;8.580;2023-07-13T06:19:49;5.13;;;2.57;;
32786;SDS011;19139;49.372;8.580;2023-07-13T06:22:15;5.87;;;3.40;;
32786;SDS011;19139;49.372;8.580;2023-07-13T06:24:42;6.53;;;2.63;;
32786;SDS011;19139;49.372;8.580;2023-07-13T06:27:09;3.13;;;2.30;;
32786;SDS011;19139;49.372;8.580;2023-07-13T06:29:35;3.90;;;2.10;;
32786;SDS011;19139;49.372;8.580;2023-07-13T06:32:02;5.83;;;2.83;;
32786;SDS011;19139;49.372;8.580;2023-07-13T06:34:29;3.83;;;2.73;;
32786;SDS011;19139;49.372;8.580;2023-07-13T06:36:55;4.60;;;2.57;;
32786;SDS011;19139;49.372;8.580;2023-07-13T06:39:22;5.37;;;2.60;;
32786;SDS011;19139;49.372;8.580;2023-07-13T06:41:49;4.73;;;2.53;;
32786;SDS011;19139;49.372;8.580;2023-07-13T06:44:15;4.63;;;2.20;;
32786;SDS011;19139;49.372;8.580;2023-07-13T06:46:42;3.00;;;2.40;;
32786;SDS011;19139;49.372;8.580;2023-07-13T06:49:09;4.63;;;2.43;;
32786;SDS011;19139;49.372;8.580;2023-07-13T06:51:35;5.03;;;2.50;;
32786;SDS011;19139;49.372;8.580;2023-07-13T06:54:02;3.87;;;1.93;;
32786;SDS011;19139;49.372;8.580;2023-07-13T06:56:29;4.27;;;2.50;;
32786;SDS011;19139;49.372;8.580;2023-07-13T06:58:56;5.33;;;3.20;;
32786;SDS011;19139;49.372;8.580;2023-07-13T07:01:22;3.73;;;2.80;;
32786;SDS011;19139;49.372;8.580;2023-07-13T07:03:49;3.17;;;2.03;;
32786;SDS011;19139;49.372;8.580;2023-07-13T07:06:20;4.67;;;2.53;;
32786;SDS011;19139;49.372;8.580;2023-07-13T07:08:50;3.70;;;2.40;;
32786;SDS011;19139;49.372;8.580;2023-07-13T07:11:18;4.30;;;2.37;;
32786;SDS011;19139;49.372;8.580;2023-07-13T07:13:48;3.90;;;2.47;;
32786;SDS011;19139;49.372;8.580;2023-07-13T07:16:15;5.10;;;2.30;;
32786;SDS011;19139;49.372;8.580;2023-07-13T07:18:42;3.77;;;2.10;;
32786;SDS011;19139;49.372;8.580;2023-07-13T07:21:09;4.80;;;2.50;;
32786;SDS011;19139;49.372;8.580;2023-07-13T07:23:36;3.47;;;2.10;;
32786;SDS011;19139;49.372;8.580;2023-07-13T07:26:03;4.40;;;2.20;;
32786;SDS011;19139;49.372;8.580;2023-07-13T07:28:30;3.97;;;2.20;;
32786;SDS011;19139;49.372;8.580;2023-07-13T07:31:00;4.67;;;2.43;;
32786;SDS011;19139;49.372;8.580;2023-07-13T07:33:30;5.83;;;2.67;;
32786;SDS011;19139;49.372;8.580;2023-07-13T07:35:56;5.33;;;2.10;;
32786;SDS011;19139;49.372;8.580;2023-07-13T07:38:26;5.17;;;2.00;;
32786;SDS011;19139;49.372;8.580;2023-07-13T07:40:53;4.57;;;2.30;;
32786;SDS011;19139;49.372;8.580;2023-07-13T07:43:22;4.77;;;2.50;;
32786;SDS011;19139;49.372;8.580;2023-07-13T07:45:49;2.60;;;1.70;;
32786;SDS011;19139;49.372;8.580;2023-07-13T07:48:16;4.10;;;1.80;;
32786;SDS011;19139;49.372;8.580;2023-07-13T07:50:42;3.67;;;1.97;;
32786;SDS011;19139;49.372;8.580;2023-07-13T07:53:10;2.67;;;1.77;;
32786;SDS011;19139;49.372;8.580;2023-07-13T07:55:37;4.07;;;2.20;;
32786;SDS011;19139;49.372;8.580;2023-07-13T07:58:06;5.53;;;2.03;;
32786;SDS011;19139;49.372;8.580;2023-07-13T08:00:53;3.20;;;2.00;;
32786;SDS011;19139;49.372;8.580;2023-07-13T08:03:23;3.33;;;2.30;;
32786;SDS011;19139;49.372;8.580;2023-07-13T08:05:53;3.83;;;1.70;;
32786;SDS011;19139;49.372;8.580;2023-07-13T08:08:23;7.87;;;2.30;;
32786;SDS011;19139;49.372;8.580;2023-07-13T08:10:50;5.07;;;1.93;;
32786;SDS011;19139;49.372;8.580;2023-07-13T08:13:16;2.53;;;1.50;;
32786;SDS011;19139;49.372;8.580;2023-07-13T08:15:43;3.57;;;1.97;;
32786;SDS011;19139;49.372;8.580;2023-07-13T08:18:11;3.57;;;2.10;;
32786;SDS011;19139;49.372;8.580;2023-07-13T08:20:38;3.13;;;1.87;;
32786;SDS011;19139;49.372;8.580;2023-07-13T08:23:05;3.37;;;1.93;;
32786;SDS011;19139;49.372;8.580;2023-07-13T08:25:35;2.33;;;1.87;;
32786;SDS011;19139;49.372;8.580;2023-07-13T08:28:02;3.40;;;1.90;;
32786;SDS011;19139;49.372;8.580;2023-07-13T08:30:29;3.13;;;1.60;;
32786;SDS011;19139;49.372;8.580;2023-07-13T08:32:56;4.50;;;1.60;;
32786;SDS011;19139;49.372;8.580;2023-07-13T08:35:23;2.20;;;1.30;;
32786;SDS011;19139;49.372;8.580;2023-07-13T08:37:51;2.17;;;1.57;;
32786;SDS011;19139;49.372;8.580;2023-07-13T08:40:18;2.03;;;1.30;;
32786;SDS011;19139;49.372;8.580;2023-07-13T08:42:52;3.90;;;1.57;;
32786;SDS011;19139;49.372;8.580;2023-07-13T08:45:24;2.93;;;1.70;;
32786;SDS011;19139;49.372;8.580;2023-07-13T08:48:08;4.33;;;1.50;;
32786;SDS011;19139;49.372;8.580;2023-07-13T08:50:55;2.97;;;1.23;;
32786;SDS011;19139;49.372;8.580;2023-07-13T08:53:29;2.53;;;1.70;;
32786;SDS011;19139;49.372;8.580;2023-07-13T08:56:01;4.73;;;1.60;;
32786;SDS011;19139;49.372;8.580;2023-07-13T08:58:28;1.73;;;1.43;;
32786;SDS011;19139;49.372;8.580;2023-07-13T09:01:19;2.23;;;1.50;;
32786;SDS011;19139;49.372;8.580;2023-07-13T09:04:26;2.87;;;1.40;;
32786;SDS011;19139;49.372;8.580;2023-07-13T09:07:05;3.50;;;1.60;;
32786;SDS011;19139;49.372;8.580;2023-07-13T09:09:53;3.60;;;1.60;;
32786;SDS011;19139;49.372;8.580;2023-07-13T09:12:35;3.87;;;1.90;;
32786;SDS011;19139;49.372;8.580;2023-07-13T09:15:17;2.40;;;1.30;;
32786;SDS011;19139;49.372;8.580;2023-07-13T09:17:52;1.80;;;1.53;;
32786;SDS011;19139;49.372;8.580;2023-07-13T09:20:42;1.83;;;1.30;;
32786;SDS011;19139;49.372;8.580;2023-07-13T09:23:15;2.37;;;1.40;;
32786;SDS011;19139;49.372;8.580;2023-07-13T09:25:47;2.67;;;1.30;;
32786;SDS011;19139;49.372;8.580;2023-07-13T09:33:22;3.50;;;2.07;;
32786;SDS011;19139;49.372;8.580;2023-07-13T09:35:49;3.33;;;1.47;;
32786;SDS011;19139;49.372;8.580;2023-07-13T09:38:17;2.63;;;1.70;;
32786;SDS011;19139;49.372;8.580;2023-07-13T09:43:36;2.73;;;1.60;;
32786;SDS011;19139;49.372;8.580;2023-07-13T09:46:02;3.70;;;1.80;;
32786;SDS011;19139;49.372;8.580;2023-07-13T09:48:35;4.13;;;1.73;;
32786;SDS011;19139;49.372;8.580;2023-07-13T09:51:13;2.57;;;1.43;;
32786;SDS011;19139;49.372;8.580;2023-07-13T09:53:42;3.53;;;1.40;;
32786;SDS011;19139;49.372;8.580;2023-07-13T09:56:18;3.63;;;2.10;;
32786;SDS011;19139;49.372;8.580;2023-07-13T09:58:53;4.30;;;1.20;;
32786;SDS011;19139;49.372;8.580;2023-07-13T10:01:36;2.20;;;1.50;;
32786;SDS011;19139;49.372;8.580;2023-07-13T10:04:13;2.50;;;1.63;;
32786;SDS011;19139;49.372;8.580;2023-07-13T10:06:42;4.30;;;1.90;;
32786;SDS011;19139;49.372;8.580;2023-07-13T10:09:13;2.47;;;1.83;;
32786;SDS011;19139;49.372;8.580;2023-07-13T10:11:45;2.97;;;1.60;;
32786;SDS011;19139;49.372;8.580;2023-07-13T10:14:16;2.27;;;1.60;;
32786;SDS011;19139;49.372;8.580;2023-07-13T10:16:46;4.17;;;1.67;;
32786;SDS011;19139;49.372;8.580;2023-07-13T10:19:18;2.87;;;1.60;;
32786;SDS011;19139;49.372;8.580;2023-07-13T10:21:50;2.90;;;1.57;;
32786;SDS011;19139;49.372;8.580;2023-07-13T10:24:26;4.13;;;1.77;;
32786;SDS011;19139;49.372;8.580;2023-07-13T10:29:34;2.70;;;1.70;;
32786;SDS011;19139;49.372;8.580;2023-07-13T10:32:09;1.60;;;1.50;;
32786;SDS011;19139;49.372;8.580;2023-07-13T10:34:38;1.90;;;1.70;;
32786;SDS011;19139;49.372;8.580;2023-07-13T10:37:15;5.10;;;1.63;;
32786;SDS011;19139;49.372;8.580;2023-07-13T10:39:46;2.60;;;1.53;;
32786;SDS011;19139;49.372;8.580;2023-07-13T10:42:15;3.07;;;1.60;;
32786;SDS011;19139;49.372;8.580;2023-07-13T10:44:51;2.40;;;1.50;;
32786;SDS011;19139;49.372;8.580;2023-07-13T10:47:18;2.40;;;1.50;;
32786;SDS011;19139;49.372;8.580;2023-07-13T10:49:53;2.93;;;1.30;;
32786;SDS011;19139;49.372;8.580;2023-07-13T10:52:40;3.57;;;1.23;;
32786;SDS011;19139;49.372;8.580;2023-07-13T10:55:30;3.23;;;1.50;;
32786;SDS011;19139;49.372;8.580;2023-07-13T10:58:01;3.43;;;1.60;;
32786;SDS011;19139;49.372;8.580;2023-07-13T11:00:32;2.90;;;1.57;;
32786;SDS011;19139;49.372;8.580;2023-07-13T11:03:13;3.63;;;1.60;;
32786;SDS011;19139;49.372;8.580;2023-07-13T11:05:42;2.03;;;1.33;;
32786;SDS011;19139;49.372;8.580;2023-07-13T11:08:16;3.20;;;1.50;;
32786;SDS011;19139;49.372;8.580;2023-07-13T11:10:55;3.17;;;1.50;;
32786;SDS011;19139;49.372;8.580;2023-07-13T11:13:35;1.97;;;1.27;;
32786;SDS011;19139;49.372;8.580;2023-07-13T11:16:12;5.00;;;1.77;;
32786;SDS011;19139;49.372;8.580;2023-07-13T11:21:29;2.73;;;1.37;;
32786;SDS011;19139;49.372;8.580;2023-07-13T11:24:12;2.43;;;1.40;;
32786;SDS011;19139;49.372;8.580;2023-07-13T11:29:32;3.60;;;1.67;;
32786;SDS011;19139;49.372;8.580;2023-07-13T11:32:20;3.47;;;2.60;;
32786;SDS011;19139;49.372;8.580;2023-07-13T11:34:53;4.20;;;1.73;;
32786;SDS011;19139;49.372;8.580;2023-07-13T11:37:20;2.53;;;1.30;;
32786;SDS011;19139;49.372;8.580;2023-07-13T11:39:50;2.10;;;1.40;;
32786;SDS011;19139;49.372;8.580;2023-07-13T11:42:18;3.90;;;1.53;;
32786;SDS011;19139;49.372;8.580;2023-07-13T11:44:48;2.83;;;1.50;;
32786;SDS011;19139;49.372;8.580;2023-07-13T11:47:39;2.10;;;1.30;;
32786;SDS011;19139;49.372;8.580;2023-07-13T11:50:16;2.13;;;1.20;;
32786;SDS011;19139;49.372;8.580;2023-07-13T11:52:48;3.83;;;1.23;;
32786;SDS011;19139;49.372;8.580;2023-07-13T11:55:17;1.50;;;1.30;;
32786;SDS011;19139;49.372;8.580;2023-07-13T11:57:54;4.07;;;1.33;;
32786;SDS011;19139;49.372;8.580;2023-07-13T12:00:31;3.20;;;1.93;;
32786;SDS011;19139;49.372;8.580;2023-07-13T12:03:00;2.60;;;1.20;;
32786;SDS011;19139;49.372;8.580;2023-07-13T12:05:31;1.50;;;1.20;;
32786;SDS011;19139;49.372;8.580;2023-07-13T12:07:58;2.20;;;1.30;;
32786;SDS011;19139;49.372;8.580;2023-07-13T12:10:28;1.40;;;1.13;;
32786;SDS011;19139;49.372;8.580;2023-07-13T12:12:57;2.77;;;1.67;;
32786;SDS011;19139;49.372;8.580;2023-07-13T12:15:37;2.93;;;1.30;;
32786;SDS011;19139;49.372;8.580;2023-07-13T12:18:11;2.47;;;0.90;;
32786;SDS011;19139;49.372;8.580;2023-07-13T12:20:41;2.43;;;1.30;;
32786;SDS011;19139;49.372;8.580;2023-07-13T12:23:15;1.73;;;1.20;;
32786;SDS011;19139;49.372;8.580;2023-07-13T12:25:50;2.03;;;1.30;;
32786;SDS011;19139;49.372;8.580;2023-07-13T12:28:21;3.90;;;1.70;;
32786;SDS011;19139;49.372;8.580;2023-07-13T12:30:57;4.93;;;1.93;;
32786;SDS011;19139;49.372;8.580;2023-07-13T12:33:27;2.20;;;1.30;;
32786;SDS011;19139;49.372;8.580;2023-07-13T12:35:55;1.90;;;1.20;;
32786;SDS011;19139;49.372;8.580;2023-07-13T12:38:24;2.20;;;1.37;;
32786;SDS011;19139;49.372;8.580;2023-07-13T12:40:51;1.80;;;1.13;;
32786;SDS011;19139;49.372;8.580;2023-07-13T12:43:20;5.03;;;1.50;;
32786;SDS011;19139;49.372;8.580;2023-07-13T12:45:58;2.70;;;1.23;;
32786;SDS011;19139;49.372;8.580;2023-07-13T12:48:28;3.93;;;1.70;;
32786;SDS011;19139;49.372;8.580;2023-07-13T12:51:12;1.70;;;1.30;;
32786;SDS011;19139;49.372;8.580;2023-07-13T12:53:41;2.87;;;1.23;;
32786;SDS011;19139;49.372;8.580;2023-07-13T12:56:16;2.10;;;0.90;;
32786;SDS011;19139;49.372;8.580;2023-07-13T12:58:47;3.77;;;1.30;;
32786;SDS011;19139;49.372;8.580;2023-07-13T13:01:21;2.97;;;1.17;;
32786;SDS011;19139;49.372;8.580;2023-07-13T13:03:50;1.77;;;1.20;;
32786;SDS011;19139;49.372;8.580;2023-07-13T13:08:50;2.47;;;1.60;;
32786;SDS011;19139;49.372;8.580;2023-07-13T13:11:19;4.90;;;1.40;;
32786;SDS011;19139;49.372;8.580;2023-07-13T13:13:46;2.73;;;1.20;;
32786;SDS011;19139;49.372;8.580;2023-07-13T13:18:51;1.47;;;1.10;;
32786;SDS011;19139;49.372;8.580;2023-07-13T13:21:20;3.90;;;1.27;;
32786;SDS011;19139;49.372;8.580;2023-07-13T13:23:47;2.90;;;1.40;;
32786;SDS011;19139;49.372;8.580;2023-07-13T13:26:15;4.10;;;1.33;;
32786;SDS011;19139;49.372;8.580;2023-07-13T13:28:42;2.57;;;1.40;;
32786;SDS011;19139;49.372;8.580;2023-07-13T13:31:11;3.30;;;1.80;;
32786;SDS011;19139;49.372;8.580;2023-07-13T13:33:42;2.43;;;1.27;;
32786;SDS011;19139;49.372;8.580;2023-07-13T13:36:21;3.93;;;1.50;;
32786;SDS011;19139;49.372;8.580;2023-07-13T13:38:49;2.90;;;1.37;;
32786;SDS011;19139;49.372;8.580;2023-07-13T13:41:16;2.83;;;1.70;;
32786;SDS011;19139;49.372;8.580;2023-07-13T13:43:43;2.50;;;1.70;;
32786;SDS011;19139;49.372;8.580;2023-07-13T13:46:21;2.97;;;1.40;;
32786;SDS011;19139;49.372;8.580;2023-07-13T13:48:55;2.83;;;1.63;;
32786;SDS011;19139;49.372;8.580;2023-07-13T13:51:23;3.43;;;1.57;;
32786;SDS011;19139;49.372;8.580;2023-07-13T13:53:50;3.00;;;1.50;;
32786;SDS011;19139;49.372;8.580;2023-07-13T13:56:17;6.10;;;1.90;;
32786;SDS011;19139;49.372;8.580;2023-07-13T13:58:45;3.13;;;1.93;;
32786;SDS011;19139;49.372;8.580;2023-07-13T14:01:14;3.23;;;1.47;;
32786;SDS011;19139;49.372;8.580;2023-07-13T14:03:44;3.57;;;1.77;;
32786;SDS011;19139;49.372;8.580;2023-07-13T14:06:12;2.07;;;1.50;;
32786;SDS011;19139;49.372;8.580;2023-07-13T14:08:40;3.80;;;1.43;;
32786;SDS011;19139;49.372;8.580;2023-07-13T14:11:17;2.83;;;1.27;;
32786;SDS011;19139;49.372;8.580;2023-07-13T14:13:50;3.63;;;1.77;;
32786;SDS011;19139;49.372;8.580;2023-07-13T14:16:26;2.67;;;1.63;;
32786;SDS011;19139;49.372;8.580;2023-07-13T14:18:55;3.27;;;2.00;;
32786;SDS011;19139;49.372;8.580;2023-07-13T14:21:25;1.73;;;1.60;;
32786;SDS011;19139;49.372;8.580;2023-07-13T14:23:53;3.23;;;1.40;;
32786;SDS011;19139;49.372;8.580;2023-07-13T14:26:21;4.97;;;2.10;;
32786;SDS011;19139;49.372;8.580;2023-07-13T14:28:51;2.93;;;1.57;;
32786;SDS011;19139;49.372;8.580;2023-07-13T14:31:20;3.40;;;1.80;;
32786;SDS011;19139;49.372;8.580;2023-07-13T14:33:47;4.03;;;1.50;;
32786;SDS011;19139;49.372;8.580;2023-07-13T14:36:30;2.90;;;1.63;;
32786;SDS011;19139;49.372;8.580;2023-07-13T14:38:59;3.87;;;1.50;;
32786;SDS011;19139;49.372;8.580;2023-07-13T14:41:34;4.50;;;1.80;;
32786;SDS011;19139;49.372;8.580;2023-07-13T14:44:01;2.60;;;1.50;;
32786;SDS011;19139;49.372;8.580;2023-07-13T14:46:33;3.50;;;1.67;;
32786;SDS011;19139;49.372;8.580;2023-07-13T14:49:12;4.57;;;1.60;;
32786;SDS011;19139;49.372;8.580;2023-07-13T14:52:02;2.93;;;1.60;;
32786;SDS011;19139;49.372;8.580;2023-07-13T14:54:36;3.33;;;1.70;;
32786;SDS011;19139;49.372;8.580;2023-07-13T14:57:10;5.63;;;1.53;;
32786;SDS011;19139;49.372;8.580;2023-07-13T14:59:38;4.80;;;2.57;;
32786;SDS011;19139;49.372;8.580;2023-07-13T15:02:13;4.73;;;1.40;;
32786;SDS011;19139;49.372;8.580;2023-07-13T15:04:59;3.50;;;1.43;;
32786;SDS011;19139;49.372;8.580;2023-07-13T15:07:26;2.47;;;1.40;;
32786;SDS011;19139;49.372;8.580;2023-07-13T15:09:53;3.57;;;1.73;;
32786;SDS011;19139;49.372;8.580;2023-07-13T15:12:19;2.43;;;1.50;;
32786;SDS011;19139;49.372;8.580;2023-07-13T15:14:46;2.33;;;1.33;;
32786;SDS011;19139;49.372;8.580;2023-07-13T15:17:21;2.13;;;1.73;;
32786;SDS011;19139;49.372;8.580;2023-07-13T15:19:54;2.33;;;1.30;;
32786;SDS011;19139;49.372;8.580;2023-07-13T15:22:22;2.13;;;1.17;;
32786;SDS011;19139;49.372;8.580;2023-07-13T15:24:49;1.93;;;1.10;;
32786;SDS011;19139;49.372;8.580;2023-07-13T15:27:15;2.20;;;1.23;;
32786;SDS011;19139;49.372;8.580;2023-07-13T15:29:42;3.67;;;1.93;;